Airfield :
LOGIN :

Register | Disclaimer

   EN    FR    IT 

 










Legend :    VFR   Marginal VFR   IFR   Intensive IFR   Very Intensive IFR
Visi :
Ceiling :
>= 8 km
>= 3000ft
5 to 8 km
1000 to 3000 ft
1500m to 5 km
500 to 1000 ft
800 to 1500m
200 to 500 ft
< 800m
< 200 ft
Symbols :   Thunderstorms  Fog  Heavy snow  Heavy precipitations  Wind > 20 kt
SIGMETs :     Misc.  Thunderstorms  Icing  Turbulence  Mountain Waves  Volcanic Ashes







- Airport Elevation : 129 ft
- IATA code : ZPQ


ETHE - Rheine Bentlage

CURRENT METAR :
  • 231420Z AUTO 29018KT //// // ////// 21/12 Q1017 ///

EXPIRED METARs :
  • 231320Z AUTO 29016G26KT //// // ////// 22/10 Q1016 ///
  • 231220Z 27014KT 9999 FEW060 BKN260 23/09 Q1016 BLU+

TAF AMD TAF ETHE
Valid from the 23 at 11:00 until the 23 at 20:00 UTC


231253Z 2311/2320 30010G20KT 9999 NSW SCT050 BKN220 CANCEL 1300
No reported NOTAMs for that airfield.
1 SIGMET reported for the Bremen FIR (EDWW) :
 
Squall lined thunderstorms and hail
EDWW SIGMET 1 VALID 231318/231600 EDZH
EDWW BREMEN FIR SQL TSGR FCST WI N5447 E00944 - N5439 E01039 - N5317 E01028 - N5324 E00940 - N5447 E00944 TOP FL300 MOV E NC=



MET'MAP, your aeronautical weather chart ! - Copyright ORBIFLY December 2007 - Disclaimer

ORBIFLY MET'MAP TEAM :

Programming & Development : Alexandra Zaïnal
Concept & Development : Baudouin d'Aumeries
Co-Development & Prog : Marc-Olivier Méhu
Technical & hardware support : Manuel Goepfert

Contact : metmap@orbifly.com




SOURCES & CREDITS :

   NOAA